Terminal Aerodrome Forecast
Issued by NWS

Home | Current Version | Previous Version | Text Only | Print | Product List | Glossary On
Versions: 1 2 3 4 5 6 7 8 9 10 11 12 13 14 15 16 17
000
FTUS44 KJAN 280208 AAA
TAFGTR
TAF AMD
KGTR 280208Z 2802/2824 13011KT P6SM OVC005
     FM280900 15003KT 3SM BR OVC003
     FM281500 15004KT P6SM BKN020
     FM281600 16006KT P6SM SCT040=

USA.gov is the U.S. government's official web portal to all federal, state and local government web resources and services.